sensor_id;sensor_type;location;lat;lon;timestamp;P1;durP1;ratioP1;P2;durP2;ratioP2
85668;SDS011;76101;44.794;10.344;2024-02-26T00:02:50;4.95;;;1.40;;
85668;SDS011;76101;44.794;10.344;2024-02-26T00:05:51;5.22;;;1.33;;
85668;SDS011;76101;44.794;10.344;2024-02-26T00:08:51;5.07;;;1.20;;
85668;SDS011;76101;44.794;10.344;2024-02-26T00:11:52;5.97;;;1.40;;
85668;SDS011;76101;44.794;10.344;2024-02-26T00:14:52;4.10;;;1.10;;
85668;SDS011;76101;44.794;10.344;2024-02-26T00:17:53;4.47;;;1.20;;
85668;SDS011;76101;44.794;10.344;2024-02-26T00:20:54;4.38;;;1.20;;
85668;SDS011;76101;44.794;10.344;2024-02-26T00:23:54;4.80;;;1.30;;
85668;SDS011;76101;44.794;10.344;2024-02-26T00:26:54;4.60;;;1.20;;
85668;SDS011;76101;44.794;10.344;2024-02-26T00:29:55;5.20;;;1.25;;
85668;SDS011;76101;44.794;10.344;2024-02-26T00:32:55;4.95;;;1.50;;
85668;SDS011;76101;44.794;10.344;2024-02-26T00:35:56;5.28;;;1.35;;
85668;SDS011;76101;44.794;10.344;2024-02-26T00:38:56;7.53;;;1.40;;
85668;SDS011;76101;44.794;10.344;2024-02-26T00:41:57;6.22;;;1.55;;
85668;SDS011;76101;44.794;10.344;2024-02-26T00:44:57;4.45;;;1.30;;
85668;SDS011;76101;44.794;10.344;2024-02-26T00:47:58;5.00;;;1.50;;
85668;SDS011;76101;44.794;10.344;2024-02-26T00:50:58;5.90;;;1.33;;
85668;SDS011;76101;44.794;10.344;2024-02-26T00:57:09;4.97;;;1.40;;
85668;SDS011;76101;44.794;10.344;2024-02-26T01:00:10;5.68;;;1.45;;
85668;SDS011;76101;44.794;10.344;2024-02-26T01:03:11;6.38;;;1.38;;
85668;SDS011;76101;44.794;10.344;2024-02-26T01:06:11;5.18;;;1.60;;
85668;SDS011;76101;44.794;10.344;2024-02-26T01:09:11;5.88;;;1.90;;
85668;SDS011;76101;44.794;10.344;2024-02-26T01:12:12;6.10;;;2.08;;
85668;SDS011;76101;44.794;10.344;2024-02-26T01:15:12;7.57;;;2.20;;
85668;SDS011;76101;44.794;10.344;2024-02-26T01:18:13;6.38;;;2.00;;
85668;SDS011;76101;44.794;10.344;2024-02-26T01:21:13;5.82;;;1.98;;
85668;SDS011;76101;44.794;10.344;2024-02-26T01:24:13;5.35;;;1.88;;
85668;SDS011;76101;44.794;10.344;2024-02-26T01:30:15;5.40;;;2.10;;
85668;SDS011;76101;44.794;10.344;2024-02-26T01:33:16;5.57;;;1.98;;
85668;SDS011;76101;44.794;10.344;2024-02-26T01:36:17;7.33;;;2.00;;
85668;SDS011;76101;44.794;10.344;2024-02-26T01:39:17;5.22;;;1.98;;
85668;SDS011;76101;44.794;10.344;2024-02-26T01:42:18;5.95;;;2.40;;
85668;SDS011;76101;44.794;10.344;2024-02-26T01:45:18;5.90;;;2.47;;
85668;SDS011;76101;44.794;10.344;2024-02-26T01:48:24;5.90;;;2.35;;
85668;SDS011;76101;44.794;10.344;2024-02-26T01:51:25;6.80;;;2.45;;
85668;SDS011;76101;44.794;10.344;2024-02-26T01:54:26;5.60;;;2.50;;
85668;SDS011;76101;44.794;10.344;2024-02-26T01:57:27;6.40;;;2.42;;
85668;SDS011;76101;44.794;10.344;2024-02-26T02:00:28;6.30;;;2.30;;
85668;SDS011;76101;44.794;10.344;2024-02-26T02:03:28;7.13;;;2.42;;
85668;SDS011;76101;44.794;10.344;2024-02-26T02:09:30;6.73;;;2.20;;
85668;SDS011;76101;44.794;10.344;2024-02-26T02:12:32;5.78;;;2.20;;
85668;SDS011;76101;44.794;10.344;2024-02-26T02:15:34;7.50;;;2.25;;
85668;SDS011;76101;44.794;10.344;2024-02-26T02:18:34;5.65;;;2.03;;
85668;SDS011;76101;44.794;10.344;2024-02-26T02:21:35;6.30;;;2.10;;
85668;SDS011;76101;44.794;10.344;2024-02-26T02:24:35;6.63;;;2.20;;
85668;SDS011;76101;44.794;10.344;2024-02-26T02:27:36;5.30;;;1.90;;
85668;SDS011;76101;44.794;10.344;2024-02-26T02:30:36;5.65;;;2.10;;
85668;SDS011;76101;44.794;10.344;2024-02-26T02:36:54;5.50;;;1.93;;
85668;SDS011;76101;44.794;10.344;2024-02-26T02:39:55;5.55;;;2.20;;
85668;SDS011;76101;44.794;10.344;2024-02-26T02:42:57;6.60;;;2.00;;
85668;SDS011;76101;44.794;10.344;2024-02-26T02:45:58;8.05;;;2.10;;
85668;SDS011;76101;44.794;10.344;2024-02-26T02:48:59;5.10;;;2.00;;
85668;SDS011;76101;44.794;10.344;2024-02-26T02:51:59;5.90;;;2.25;;
85668;SDS011;76101;44.794;10.344;2024-02-26T02:55:00;5.72;;;1.98;;
85668;SDS011;76101;44.794;10.344;2024-02-26T02:58:01;5.45;;;1.85;;
85668;SDS011;76101;44.794;10.344;2024-02-26T03:01:01;5.68;;;1.95;;
85668;SDS011;76101;44.794;10.344;2024-02-26T03:04:02;6.78;;;2.17;;
85668;SDS011;76101;44.794;10.344;2024-02-26T03:07:02;5.95;;;2.58;;
85668;SDS011;76101;44.794;10.344;2024-02-26T03:10:03;7.35;;;2.20;;
85668;SDS011;76101;44.794;10.344;2024-02-26T03:13:03;5.70;;;2.05;;
85668;SDS011;76101;44.794;10.344;2024-02-26T03:16:05;6.47;;;2.13;;
85668;SDS011;76101;44.794;10.344;2024-02-26T03:19:05;5.85;;;2.20;;
85668;SDS011;76101;44.794;10.344;2024-02-26T03:22:06;5.97;;;2.00;;
85668;SDS011;76101;44.794;10.344;2024-02-26T03:25:07;7.18;;;2.38;;
85668;SDS011;76101;44.794;10.344;2024-02-26T03:28:08;8.57;;;3.30;;
85668;SDS011;76101;44.794;10.344;2024-02-26T03:31:08;8.97;;;3.93;;
85668;SDS011;76101;44.794;10.344;2024-02-26T03:34:11;8.48;;;3.85;;
85668;SDS011;76101;44.794;10.344;2024-02-26T03:37:12;12.20;;;4.30;;
85668;SDS011;76101;44.794;10.344;2024-02-26T03:40:13;10.27;;;4.60;;
85668;SDS011;76101;44.794;10.344;2024-02-26T03:43:14;8.38;;;4.10;;
85668;SDS011;76101;44.794;10.344;2024-02-26T03:46:15;10.27;;;4.95;;
85668;SDS011;76101;44.794;10.344;2024-02-26T03:49:15;11.95;;;5.30;;
85668;SDS011;76101;44.794;10.344;2024-02-26T03:52:16;10.88;;;5.60;;
85668;SDS011;76101;44.794;10.344;2024-02-26T03:55:17;11.75;;;6.07;;
85668;SDS011;76101;44.794;10.344;2024-02-26T03:58:21;11.00;;;6.38;;
85668;SDS011;76101;44.794;10.344;2024-02-26T04:01:21;11.52;;;6.30;;
85668;SDS011;76101;44.794;10.344;2024-02-26T04:04:22;12.45;;;6.25;;
85668;SDS011;76101;44.794;10.344;2024-02-26T04:07:22;10.88;;;6.20;;
85668;SDS011;76101;44.794;10.344;2024-02-26T04:10:23;12.32;;;6.55;;
85668;SDS011;76101;44.794;10.344;2024-02-26T04:13:23;10.50;;;6.07;;
85668;SDS011;76101;44.794;10.344;2024-02-26T04:16:24;12.43;;;6.78;;
85668;SDS011;76101;44.794;10.344;2024-02-26T04:19:25;11.82;;;6.20;;
85668;SDS011;76101;44.794;10.344;2024-02-26T04:22:25;12.32;;;6.35;;
85668;SDS011;76101;44.794;10.344;2024-02-26T04:25:26;11.85;;;6.40;;
85668;SDS011;76101;44.794;10.344;2024-02-26T04:28:27;13.10;;;6.88;;
85668;SDS011;76101;44.794;10.344;2024-02-26T04:31:29;13.32;;;6.22;;
85668;SDS011;76101;44.794;10.344;2024-02-26T04:34:30;11.73;;;6.25;;
85668;SDS011;76101;44.794;10.344;2024-02-26T04:37:30;11.95;;;6.03;;
85668;SDS011;76101;44.794;10.344;2024-02-26T04:40:37;9.95;;;5.40;;
85668;SDS011;76101;44.794;10.344;2024-02-26T04:43:38;9.57;;;5.13;;
85668;SDS011;76101;44.794;10.344;2024-02-26T04:46:42;10.82;;;5.45;;
85668;SDS011;76101;44.794;10.344;2024-02-26T04:49:43;10.60;;;5.30;;
85668;SDS011;76101;44.794;10.344;2024-02-26T04:52:44;10.75;;;5.65;;
85668;SDS011;76101;44.794;10.344;2024-02-26T04:55:44;10.02;;;5.63;;
85668;SDS011;76101;44.794;10.344;2024-02-26T04:58:45;11.70;;;5.63;;
85668;SDS011;76101;44.794;10.344;2024-02-26T05:01:45;11.02;;;5.90;;
85668;SDS011;76101;44.794;10.344;2024-02-26T05:04:45;12.43;;;6.55;;
85668;SDS011;76101;44.794;10.344;2024-02-26T05:07:46;11.82;;;7.15;;
85668;SDS011;76101;44.794;10.344;2024-02-26T05:10:46;13.48;;;7.07;;
85668;SDS011;76101;44.794;10.344;2024-02-26T05:13:47;12.77;;;7.15;;
85668;SDS011;76101;44.794;10.344;2024-02-26T05:16:48;14.38;;;7.72;;
85668;SDS011;76101;44.794;10.344;2024-02-26T05:19:48;13.32;;;7.95;;
85668;SDS011;76101;44.794;10.344;2024-02-26T05:22:49;13.50;;;8.07;;
85668;SDS011;76101;44.794;10.344;2024-02-26T05:25:49;14.88;;;8.30;;
85668;SDS011;76101;44.794;10.344;2024-02-26T05:28:50;14.35;;;8.48;;
85668;SDS011;76101;44.794;10.344;2024-02-26T05:31:50;13.80;;;8.77;;
85668;SDS011;76101;44.794;10.344;2024-02-26T05:34:51;14.52;;;8.95;;
85668;SDS011;76101;44.794;10.344;2024-02-26T05:37:51;15.52;;;8.48;;
85668;SDS011;76101;44.794;10.344;2024-02-26T05:40:52;15.95;;;9.15;;
85668;SDS011;76101;44.794;10.344;2024-02-26T05:43:55;14.38;;;9.15;;
85668;SDS011;76101;44.794;10.344;2024-02-26T05:46:56;15.38;;;9.55;;
85668;SDS011;76101;44.794;10.344;2024-02-26T05:49:56;14.27;;;9.02;;
85668;SDS011;76101;44.794;10.344;2024-02-26T05:52:59;15.43;;;9.38;;
85668;SDS011;76101;44.794;10.344;2024-02-26T05:55:59;16.23;;;9.45;;
85668;SDS011;76101;44.794;10.344;2024-02-26T05:58:59;15.90;;;9.17;;
85668;SDS011;76101;44.794;10.344;2024-02-26T06:02:00;15.90;;;9.73;;
85668;SDS011;76101;44.794;10.344;2024-02-26T06:05:00;16.80;;;10.65;;
85668;SDS011;76101;44.794;10.344;2024-02-26T06:08:01;19.93;;;10.30;;
85668;SDS011;76101;44.794;10.344;2024-02-26T06:11:06;18.35;;;10.77;;
85668;SDS011;76101;44.794;10.344;2024-02-26T06:14:07;17.33;;;9.88;;
85668;SDS011;76101;44.794;10.344;2024-02-26T06:17:07;20.50;;;11.48;;
85668;SDS011;76101;44.794;10.344;2024-02-26T06:20:08;18.27;;;10.48;;
85668;SDS011;76101;44.794;10.344;2024-02-26T06:23:12;17.92;;;10.65;;
85668;SDS011;76101;44.794;10.344;2024-02-26T06:26:15;19.23;;;11.10;;
85668;SDS011;76101;44.794;10.344;2024-02-26T06:29:16;20.05;;;10.73;;
85668;SDS011;76101;44.794;10.344;2024-02-26T06:32:16;18.30;;;10.88;;
85668;SDS011;76101;44.794;10.344;2024-02-26T06:35:17;16.35;;;10.35;;
85668;SDS011;76101;44.794;10.344;2024-02-26T06:38:17;16.73;;;10.32;;
85668;SDS011;76101;44.794;10.344;2024-02-26T06:41:18;17.13;;;10.60;;
85668;SDS011;76101;44.794;10.344;2024-02-26T06:44:18;19.33;;;11.23;;
85668;SDS011;76101;44.794;10.344;2024-02-26T06:47:19;18.90;;;11.00;;
85668;SDS011;76101;44.794;10.344;2024-02-26T06:50:20;17.95;;;10.55;;
85668;SDS011;76101;44.794;10.344;2024-02-26T06:53:20;17.73;;;11.55;;
85668;SDS011;76101;44.794;10.344;2024-02-26T06:56:20;18.40;;;11.27;;
85668;SDS011;76101;44.794;10.344;2024-02-26T06:59:21;20.83;;;11.65;;
85668;SDS011;76101;44.794;10.344;2024-02-26T07:02:22;17.45;;;10.70;;
85668;SDS011;76101;44.794;10.344;2024-02-26T07:05:22;17.83;;;11.05;;
85668;SDS011;76101;44.794;10.344;2024-02-26T07:08:23;18.27;;;11.55;;
85668;SDS011;76101;44.794;10.344;2024-02-26T07:11:23;20.92;;;12.27;;
85668;SDS011;76101;44.794;10.344;2024-02-26T07:14:23;19.85;;;12.45;;
85668;SDS011;76101;44.794;10.344;2024-02-26T07:17:24;19.60;;;12.20;;
85668;SDS011;76101;44.794;10.344;2024-02-26T07:20:25;19.80;;;12.32;;
85668;SDS011;76101;44.794;10.344;2024-02-26T07:23:25;19.45;;;12.80;;
85668;SDS011;76101;44.794;10.344;2024-02-26T07:26:26;22.17;;;13.20;;
85668;SDS011;76101;44.794;10.344;2024-02-26T07:29:26;18.90;;;13.10;;
85668;SDS011;76101;44.794;10.344;2024-02-26T07:32:26;19.63;;;12.33;;
85668;SDS011;76101;44.794;10.344;2024-02-26T07:35:27;18.67;;;12.23;;
85668;SDS011;76101;44.794;10.344;2024-02-26T07:38:28;20.15;;;12.07;;
85668;SDS011;76101;44.794;10.344;2024-02-26T07:41:28;20.33;;;12.68;;
85668;SDS011;76101;44.794;10.344;2024-02-26T07:44:28;19.40;;;12.73;;
85668;SDS011;76101;44.794;10.344;2024-02-26T07:47:29;19.08;;;11.77;;
85668;SDS011;76101;44.794;10.344;2024-02-26T07:50:29;19.15;;;13.02;;
85668;SDS011;76101;44.794;10.344;2024-02-26T07:53:30;18.27;;;11.83;;
85668;SDS011;76101;44.794;10.344;2024-02-26T07:56:30;19.63;;;12.85;;
85668;SDS011;76101;44.794;10.344;2024-02-26T07:59:31;20.67;;;12.37;;
85668;SDS011;76101;44.794;10.344;2024-02-26T08:02:32;17.50;;;11.60;;
85668;SDS011;76101;44.794;10.344;2024-02-26T08:05:35;17.73;;;11.18;;
85668;SDS011;76101;44.794;10.344;2024-02-26T08:08:36;20.30;;;11.77;;
85668;SDS011;76101;44.794;10.344;2024-02-26T08:11:36;17.80;;;11.55;;
85668;SDS011;76101;44.794;10.344;2024-02-26T08:14:37;19.60;;;11.73;;
85668;SDS011;76101;44.794;10.344;2024-02-26T08:17:37;16.67;;;10.88;;
85668;SDS011;76101;44.794;10.344;2024-02-26T08:20:38;17.90;;;10.27;;
85668;SDS011;76101;44.794;10.344;2024-02-26T08:23:38;15.32;;;9.65;;
85668;SDS011;76101;44.794;10.344;2024-02-26T08:26:39;15.50;;;10.02;;
85668;SDS011;76101;44.794;10.344;2024-02-26T08:29:39;16.67;;;10.27;;
85668;SDS011;76101;44.794;10.344;2024-02-26T08:32:39;16.63;;;9.47;;
85668;SDS011;76101;44.794;10.344;2024-02-26T08:35:40;14.77;;;9.40;;
85668;SDS011;76101;44.794;10.344;2024-02-26T08:38:40;14.88;;;8.73;;
85668;SDS011;76101;44.794;10.344;2024-02-26T08:41:41;14.77;;;9.15;;
85668;SDS011;76101;44.794;10.344;2024-02-26T08:44:41;14.18;;;9.07;;
85668;SDS011;76101;44.794;10.344;2024-02-26T08:47:42;14.50;;;8.95;;
85668;SDS011;76101;44.794;10.344;2024-02-26T08:50:45;13.52;;;7.82;;
85668;SDS011;76101;44.794;10.344;2024-02-26T08:53:45;16.73;;;9.40;;
85668;SDS011;76101;44.794;10.344;2024-02-26T08:56:46;14.05;;;8.32;;
85668;SDS011;76101;44.794;10.344;2024-02-26T08:59:46;15.07;;;7.95;;
85668;SDS011;76101;44.794;10.344;2024-02-26T09:02:47;14.60;;;7.43;;
85668;SDS011;76101;44.794;10.344;2024-02-26T09:05:48;12.82;;;7.50;;
85668;SDS011;76101;44.794;10.344;2024-02-26T09:08:49;13.52;;;7.65;;
85668;SDS011;76101;44.794;10.344;2024-02-26T09:11:49;14.63;;;8.07;;
85668;SDS011;76101;44.794;10.344;2024-02-26T09:14:52;14.07;;;8.18;;
85668;SDS011;76101;44.794;10.344;2024-02-26T09:17:52;14.00;;;7.65;;
85668;SDS011;76101;44.794;10.344;2024-02-26T09:20:52;13.68;;;8.13;;
85668;SDS011;76101;44.794;10.344;2024-02-26T09:23:53;13.13;;;7.77;;
85668;SDS011;76101;44.794;10.344;2024-02-26T09:26:54;13.57;;;8.27;;
85668;SDS011;76101;44.794;10.344;2024-02-26T09:29:55;13.45;;;7.85;;
85668;SDS011;76101;44.794;10.344;2024-02-26T09:32:55;13.68;;;7.90;;
85668;SDS011;76101;44.794;10.344;2024-02-26T09:35:56;16.55;;;8.52;;
85668;SDS011;76101;44.794;10.344;2024-02-26T09:38:56;16.10;;;7.95;;
85668;SDS011;76101;44.794;10.344;2024-02-26T09:41:56;15.00;;;7.80;;
85668;SDS011;76101;44.794;10.344;2024-02-26T09:44:57;12.55;;;7.50;;
85668;SDS011;76101;44.794;10.344;2024-02-26T09:48:01;12.32;;;7.25;;
85668;SDS011;76101;44.794;10.344;2024-02-26T09:51:04;12.98;;;6.80;;
85668;SDS011;76101;44.794;10.344;2024-02-26T09:54:05;12.60;;;7.43;;
85668;SDS011;76101;44.794;10.344;2024-02-26T09:57:09;12.25;;;7.20;;
85668;SDS011;76101;44.794;10.344;2024-02-26T10:00:17;12.95;;;7.63;;
85668;SDS011;76101;44.794;10.344;2024-02-26T10:03:21;13.57;;;7.45;;
85668;SDS011;76101;44.794;10.344;2024-02-26T10:06:23;13.95;;;7.65;;
85668;SDS011;76101;44.794;10.344;2024-02-26T10:09:26;13.07;;;7.97;;
85668;SDS011;76101;44.794;10.344;2024-02-26T10:12:26;11.90;;;7.13;;
85668;SDS011;76101;44.794;10.344;2024-02-26T10:15:28;12.70;;;7.30;;
85668;SDS011;76101;44.794;10.344;2024-02-26T10:18:47;13.18;;;7.03;;
85668;SDS011;76101;44.794;10.344;2024-02-26T10:21:49;13.95;;;7.40;;
85668;SDS011;76101;44.794;10.344;2024-02-26T10:24:49;12.55;;;7.22;;
85668;SDS011;76101;44.794;10.344;2024-02-26T10:27:49;12.25;;;6.93;;
85668;SDS011;76101;44.794;10.344;2024-02-26T10:30:51;13.25;;;7.00;;
85668;SDS011;76101;44.794;10.344;2024-02-26T10:33:54;12.30;;;7.28;;
85668;SDS011;76101;44.794;10.344;2024-02-26T10:36:55;18.52;;;8.15;;
85668;SDS011;76101;44.794;10.344;2024-02-26T10:39:56;13.30;;;7.40;;
85668;SDS011;76101;44.794;10.344;2024-02-26T10:42:56;12.73;;;7.55;;
85668;SDS011;76101;44.794;10.344;2024-02-26T10:45:58;14.07;;;7.50;;
85668;SDS011;76101;44.794;10.344;2024-02-26T10:48:59;12.65;;;7.25;;
85668;SDS011;76101;44.794;10.344;2024-02-26T10:52:00;12.60;;;7.03;;
85668;SDS011;76101;44.794;10.344;2024-02-26T10:55:02;11.95;;;7.22;;
85668;SDS011;76101;44.794;10.344;2024-02-26T10:58:04;13.30;;;7.05;;
85668;SDS011;76101;44.794;10.344;2024-02-26T11:01:07;14.70;;;6.90;;
85668;SDS011;76101;44.794;10.344;2024-02-26T11:04:09;14.05;;;7.00;;
85668;SDS011;76101;44.794;10.344;2024-02-26T11:07:10;16.88;;;7.05;;
85668;SDS011;76101;44.794;10.344;2024-02-26T11:10:12;15.05;;;7.78;;
85668;SDS011;76101;44.794;10.344;2024-02-26T11:13:13;14.60;;;7.35;;
85668;SDS011;76101;44.794;10.344;2024-02-26T11:16:16;14.70;;;6.95;;
85668;SDS011;76101;44.794;10.344;2024-02-26T11:19:18;14.00;;;7.22;;
85668;SDS011;76101;44.794;10.344;2024-02-26T11:22:19;11.52;;;7.00;;
85668;SDS011;76101;44.794;10.344;2024-02-26T11:25:22;11.85;;;6.80;;
85668;SDS011;76101;44.794;10.344;2024-02-26T11:28:23;13.10;;;6.80;;
85668;SDS011;76101;44.794;10.344;2024-02-26T11:31:25;9.85;;;5.90;;
85668;SDS011;76101;44.794;10.344;2024-02-26T11:34:27;12.52;;;6.90;;
85668;SDS011;76101;44.794;10.344;2024-02-26T11:37:28;9.70;;;5.95;;
85668;SDS011;76101;44.794;10.344;2024-02-26T11:40:29;10.90;;;6.00;;
85668;SDS011;76101;44.794;10.344;2024-02-26T11:47:10;11.85;;;6.45;;
85668;SDS011;76101;44.794;10.344;2024-02-26T11:53:45;10.90;;;6.03;;
85668;SDS011;76101;44.794;10.344;2024-02-26T11:56:48;11.23;;;6.45;;
85668;SDS011;76101;44.794;10.344;2024-02-26T11:59:50;11.95;;;7.03;;
85668;SDS011;76101;44.794;10.344;2024-02-26T12:02:55;11.82;;;6.10;;
85668;SDS011;76101;44.794;10.344;2024-02-26T12:06:07;10.73;;;5.78;;
85668;SDS011;76101;44.794;10.344;2024-02-26T12:09:08;10.63;;;5.35;;
85668;SDS011;76101;44.794;10.344;2024-02-26T12:12:18;13.60;;;7.10;;
85668;SDS011;76101;44.794;10.344;2024-02-26T12:15:19;9.23;;;5.30;;
85668;SDS011;76101;44.794;10.344;2024-02-26T12:18:23;10.82;;;5.40;;
85668;SDS011;76101;44.794;10.344;2024-02-26T12:21:24;9.18;;;5.45;;
85668;SDS011;76101;44.794;10.344;2024-02-26T12:24:24;11.25;;;5.15;;
85668;SDS011;76101;44.794;10.344;2024-02-26T12:27:24;10.23;;;5.60;;
85668;SDS011;76101;44.794;10.344;2024-02-26T12:30:25;9.53;;;5.00;;
85668;SDS011;76101;44.794;10.344;2024-02-26T12:33:26;8.23;;;4.78;;
85668;SDS011;76101;44.794;10.344;2024-02-26T12:36:27;9.68;;;4.63;;
85668;SDS011;76101;44.794;10.344;2024-02-26T12:39:31;10.02;;;4.55;;
85668;SDS011;76101;44.794;10.344;2024-02-26T12:42:32;8.88;;;4.32;;
85668;SDS011;76101;44.794;10.344;2024-02-26T12:45:42;7.28;;;3.60;;
85668;SDS011;76101;44.794;10.344;2024-02-26T12:48:46;7.43;;;2.95;;
85668;SDS011;76101;44.794;10.344;2024-02-26T12:56:21;5.63;;;1.60;;
85668;SDS011;76101;44.794;10.344;2024-02-26T12:59:23;5.75;;;1.58;;
85668;SDS011;76101;44.794;10.344;2024-02-26T13:02:24;5.38;;;1.45;;
85668;SDS011;76101;44.794;10.344;2024-02-26T13:05:25;6.68;;;1.42;;
85668;SDS011;76101;44.794;10.344;2024-02-26T13:08:35;4.75;;;1.30;;
85668;SDS011;76101;44.794;10.344;2024-02-26T13:11:35;9.20;;;1.52;;
85668;SDS011;76101;44.794;10.344;2024-02-26T13:14:39;5.30;;;1.55;;
85668;SDS011;76101;44.794;10.344;2024-02-26T13:17:40;5.97;;;1.63;;
85668;SDS011;76101;44.794;10.344;2024-02-26T13:20:40;5.18;;;1.60;;
85668;SDS011;76101;44.794;10.344;2024-02-26T13:23:42;5.82;;;1.70;;
85668;SDS011;76101;44.794;10.344;2024-02-26T13:26:42;5.20;;;1.90;;
85668;SDS011;76101;44.794;10.344;2024-02-26T13:29:43;7.88;;;2.00;;
85668;SDS011;76101;44.794;10.344;2024-02-26T13:32:46;7.10;;;3.63;;
85668;SDS011;76101;44.794;10.344;2024-02-26T13:35:47;6.25;;;2.13;;
85668;SDS011;76101;44.794;10.344;2024-02-26T13:38:54;6.80;;;2.33;;
85668;SDS011;76101;44.794;10.344;2024-02-26T13:41:55;7.25;;;2.90;;
85668;SDS011;76101;44.794;10.344;2024-02-26T13:48:01;6.97;;;3.27;;
85668;SDS011;76101;44.794;10.344;2024-02-26T13:51:03;8.02;;;3.58;;
85668;SDS011;76101;44.794;10.344;2024-02-26T13:54:04;8.95;;;4.55;;
85668;SDS011;76101;44.794;10.344;2024-02-26T13:57:05;7.40;;;3.70;;
85668;SDS011;76101;44.794;10.344;2024-02-26T14:00:09;6.85;;;3.67;;
85668;SDS011;76101;44.794;10.344;2024-02-26T14:03:10;7.85;;;3.72;;
85668;SDS011;76101;44.794;10.344;2024-02-26T14:06:19;7.40;;;3.60;;
85668;SDS011;76101;44.794;10.344;2024-02-26T14:09:19;7.28;;;3.60;;
85668;SDS011;76101;44.794;10.344;2024-02-26T14:12:26;7.38;;;3.45;;
85668;SDS011;76101;44.794;10.344;2024-02-26T14:19:20;10.68;;;2.88;;
85668;SDS011;76101;44.794;10.344;2024-02-26T14:22:20;6.95;;;2.53;;
85668;SDS011;76101;44.794;10.344;2024-02-26T14:29:00;6.55;;;2.40;;
85668;SDS011;76101;44.794;10.344;2024-02-26T14:32:00;7.63;;;2.60;;
85668;SDS011;76101;44.794;10.344;2024-02-26T14:35:01;6.93;;;2.42;;
85668;SDS011;76101;44.794;10.344;2024-02-26T14:38:03;6.80;;;2.70;;
85668;SDS011;76101;44.794;10.344;2024-02-26T14:41:03;7.43;;;2.90;;
85668;SDS011;76101;44.794;10.344;2024-02-26T14:44:03;7.40;;;2.45;;
85668;SDS011;76101;44.794;10.344;2024-02-26T14:47:04;7.15;;;2.83;;
85668;SDS011;76101;44.794;10.344;2024-02-26T14:50:05;6.78;;;2.65;;
85668;SDS011;76101;44.794;10.344;2024-02-26T14:53:05;6.40;;;2.75;;
85668;SDS011;76101;44.794;10.344;2024-02-26T14:56:09;6.82;;;2.75;;
85668;SDS011;76101;44.794;10.344;2024-02-26T14:59:09;9.05;;;3.13;;
85668;SDS011;76101;44.794;10.344;2024-02-26T15:02:10;7.45;;;2.83;;
85668;SDS011;76101;44.794;10.344;2024-02-26T15:05:10;8.13;;;2.90;;
85668;SDS011;76101;44.794;10.344;2024-02-26T15:08:11;7.15;;;2.50;;
85668;SDS011;76101;44.794;10.344;2024-02-26T15:11:15;8.75;;;2.60;;
85668;SDS011;76101;44.794;10.344;2024-02-26T15:14:15;5.88;;;2.15;;
85668;SDS011;76101;44.794;10.344;2024-02-26T15:17:16;7.90;;;1.85;;
85668;SDS011;76101;44.794;10.344;2024-02-26T15:20:16;5.70;;;1.70;;
85668;SDS011;76101;44.794;10.344;2024-02-26T15:23:17;6.88;;;1.80;;
85668;SDS011;76101;44.794;10.344;2024-02-26T15:26:17;4.68;;;1.55;;
85668;SDS011;76101;44.794;10.344;2024-02-26T15:29:18;7.70;;;1.25;;
85668;SDS011;76101;44.794;10.344;2024-02-26T15:36:02;5.57;;;1.15;;
85668;SDS011;76101;44.794;10.344;2024-02-26T15:39:03;3.47;;;0.90;;
85668;SDS011;76101;44.794;10.344;2024-02-26T15:42:07;5.47;;;1.10;;
85668;SDS011;76101;44.794;10.344;2024-02-26T15:45:07;6.22;;;1.20;;
85668;SDS011;76101;44.794;10.344;2024-02-26T15:48:23;4.68;;;0.93;;
85668;SDS011;76101;44.794;10.344;2024-02-26T15:51:26;5.45;;;1.10;;
85668;SDS011;76101;44.794;10.344;2024-02-26T15:54:27;6.13;;;1.10;;
85668;SDS011;76101;44.794;10.344;2024-02-26T15:57:27;3.63;;;0.80;;
85668;SDS011;76101;44.794;10.344;2024-02-26T16:00:28;4.00;;;0.80;;
85668;SDS011;76101;44.794;10.344;2024-02-26T16:03:31;3.55;;;0.90;;
85668;SDS011;76101;44.794;10.344;2024-02-26T16:06:50;3.40;;;0.80;;
85668;SDS011;76101;44.794;10.344;2024-02-26T16:09:54;4.15;;;0.80;;
85668;SDS011;76101;44.794;10.344;2024-02-26T16:12:56;3.47;;;1.00;;
85668;SDS011;76101;44.794;10.344;2024-02-26T16:16:05;5.53;;;1.20;;
85668;SDS011;76101;44.794;10.344;2024-02-26T16:22:17;4.85;;;0.90;;
85668;SDS011;76101;44.794;10.344;2024-02-26T16:25:17;3.38;;;1.00;;
85668;SDS011;76101;44.794;10.344;2024-02-26T16:28:18;4.82;;;1.00;;
85668;SDS011;76101;44.794;10.344;2024-02-26T16:31:21;4.35;;;1.08;;
85668;SDS011;76101;44.794;10.344;2024-02-26T16:34:24;5.07;;;1.20;;
85668;SDS011;76101;44.794;10.344;2024-02-26T16:37:24;5.25;;;1.00;;
85668;SDS011;76101;44.794;10.344;2024-02-26T16:40:25;4.25;;;1.10;;
85668;SDS011;76101;44.794;10.344;2024-02-26T16:43:26;3.87;;;1.00;;
85668;SDS011;76101;44.794;10.344;2024-02-26T16:46:26;4.78;;;1.20;;
85668;SDS011;76101;44.794;10.344;2024-02-26T16:49:27;4.25;;;1.10;;
85668;SDS011;76101;44.794;10.344;2024-02-26T16:52:27;5.55;;;1.20;;
85668;SDS011;76101;44.794;10.344;2024-02-26T16:55:28;5.13;;;1.40;;
85668;SDS011;76101;44.794;10.344;2024-02-26T16:58:29;5.75;;;2.15;;
85668;SDS011;76101;44.794;10.344;2024-02-26T17:01:29;4.80;;;1.40;;
85668;SDS011;76101;44.794;10.344;2024-02-26T17:04:30;5.43;;;1.20;;
85668;SDS011;76101;44.794;10.344;2024-02-26T17:07:30;4.70;;;1.38;;
85668;SDS011;76101;44.794;10.344;2024-02-26T17:10:31;5.88;;;1.20;;
85668;SDS011;76101;44.794;10.344;2024-02-26T17:13:32;4.18;;;1.10;;
85668;SDS011;76101;44.794;10.344;2024-02-26T17:16:33;5.30;;;1.20;;
85668;SDS011;76101;44.794;10.344;2024-02-26T17:19:36;5.47;;;1.27;;
85668;SDS011;76101;44.794;10.344;2024-02-26T17:22:36;5.47;;;1.27;;
85668;SDS011;76101;44.794;10.344;2024-02-26T17:25:37;4.20;;;1.10;;
85668;SDS011;76101;44.794;10.344;2024-02-26T17:28:38;5.15;;;1.20;;
85668;SDS011;76101;44.794;10.344;2024-02-26T17:31:40;5.18;;;1.23;;
85668;SDS011;76101;44.794;10.344;2024-02-26T17:34:42;7.72;;;2.80;;
85668;SDS011;76101;44.794;10.344;2024-02-26T17:37:43;6.45;;;1.30;;
85668;SDS011;76101;44.794;10.344;2024-02-26T17:40:46;5.13;;;1.20;;
85668;SDS011;76101;44.794;10.344;2024-02-26T17:43:47;4.13;;;1.20;;
85668;SDS011;76101;44.794;10.344;2024-02-26T17:46:48;5.53;;;1.40;;
85668;SDS011;76101;44.794;10.344;2024-02-26T17:49:48;5.95;;;1.30;;
85668;SDS011;76101;44.794;10.344;2024-02-26T17:52:49;5.80;;;1.40;;
85668;SDS011;76101;44.794;10.344;2024-02-26T17:55:52;5.00;;;1.50;;
85668;SDS011;76101;44.794;10.344;2024-02-26T17:59:06;5.38;;;1.45;;
85668;SDS011;76101;44.794;10.344;2024-02-26T18:02:07;7.80;;;1.70;;
85668;SDS011;76101;44.794;10.344;2024-02-26T18:05:08;5.65;;;1.60;;
85668;SDS011;76101;44.794;10.344;2024-02-26T18:08:08;5.13;;;1.60;;
85668;SDS011;76101;44.794;10.344;2024-02-26T18:11:09;6.60;;;2.17;;
85668;SDS011;76101;44.794;10.344;2024-02-26T18:14:12;6.22;;;1.90;;
85668;SDS011;76101;44.794;10.344;2024-02-26T18:20:32;6.63;;;1.90;;
85668;SDS011;76101;44.794;10.344;2024-02-26T18:23:35;6.68;;;1.90;;
85668;SDS011;76101;44.794;10.344;2024-02-26T18:26:38;6.30;;;1.95;;
85668;SDS011;76101;44.794;10.344;2024-02-26T18:29:38;7.05;;;2.08;;
85668;SDS011;76101;44.794;10.344;2024-02-26T18:32:39;5.85;;;1.98;;